Time;durP1;ratioP1;P1;durP2;ratioP2;P2;SDS_P1;SDS_P2;PMS_P1;PMS_P2;Temp;Humidity;BMP_temperature;BMP_pressure;BME280_temperature;BME280_humidity;BME280_pressure;Samples;Min_cycle;Max_cycle;Signal;HPM_P1;HPM_P2
2022/12/12 00:00:31;;;;;;;37.65;14.25;;;0.40;99.90;;;;;;5131836;27;20050;-43
2022/12/12 00:02:57;;;;;;;30.58;13.40;;;0.30;99.90;;;;;;5130322;27;20038;-43
2022/12/12 00:05:23;;;;;;;29.33;13.95;;;0.30;99.90;;;;;;5132456;27;20382;-44
2022/12/12 00:07:49;;;;;;;27.35;12.55;;;0.30;99.90;;;;;;5113386;27;20089;-45
2022/12/12 00:10:14;;;;;;;31.45;13.95;;;0.30;99.90;;;;;;5132267;27;20483;-44
2022/12/12 00:12:40;;;;;;;29.35;13.35;;;0.30;99.90;;;;;;5131895;27;20078;-43
2022/12/12 00:15:07;;;;;;;32.15;13.98;;;0.30;99.90;;;;;;5132254;27;20151;-44
2022/12/12 00:17:33;;;;;;;31.80;13.98;;;0.30;99.90;;;;;;5130876;27;20038;-42
2022/12/12 00:19:59;;;;;;;28.63;13.52;;;0.40;99.90;;;;;;5131965;27;20051;-44
2022/12/12 00:22:24;;;;;;;29.80;14.15;;;0.40;99.90;;;;;;5131878;27;20027;-42
2022/12/12 00:24:50;;;;;;;32.50;13.32;;;0.30;99.90;;;;;;5131750;27;20035;-43
2022/12/12 00:27:16;;;;;;;34.28;14.85;;;1.00;99.90;;;;;;5130546;27;20478;-43
2022/12/12 00:29:41;;;;;;;29.88;13.93;;;0.30;99.90;;;;;;5113563;27;20035;-43
2022/12/12 00:32:07;;;;;;;31.55;14.18;;;0.30;99.90;;;;;;5131644;27;20095;-43
2022/12/12 00:34:33;;;;;;;31.25;14.10;;;0.30;99.90;;;;;;5131318;27;20088;-43
2022/12/12 00:36:58;;;;;;;31.80;14.40;;;0.30;99.90;;;;;;5131780;27;20046;-44
2022/12/12 00:39:24;;;;;;;31.52;13.73;;;0.40;99.90;;;;;;5131638;27;20046;-46
2022/12/12 00:41:50;;;;;;;30.00;14.00;;;0.40;99.90;;;;;;5131329;27;20085;-44
2022/12/12 00:44:16;;;;;;;33.08;12.90;;;0.40;99.90;;;;;;5112874;27;20042;-44
2022/12/12 00:46:41;;;;;;;31.17;13.60;;;0.40;99.90;;;;;;5131601;27;20038;-46
2022/12/12 00:49:08;;;;;;;28.63;12.77;;;0.40;99.90;;;;;;5113068;27;20035;-45
2022/12/12 00:51:33;;;;;;;31.35;13.90;;;0.40;99.90;;;;;;5112683;27;20038;-44
2022/12/12 00:53:59;;;;;;;30.50;13.15;;;0.30;99.90;;;;;;5112710;27;20460;-43
2022/12/12 00:56:27;;;;;;;28.65;12.75;;;0.40;99.90;;;;;;5130943;27;20062;-42
2022/12/12 00:58:53;;;;;;;29.17;13.80;;;0.40;99.90;;;;;;5129047;27;20035;-43
2022/12/12 01:01:26;;;;;;;30.40;14.57;;;0.40;99.90;;;;;;5112742;27;20447;-42
2022/12/12 01:03:52;;;;;;;28.20;13.05;;;0.30;99.90;;;;;;5130364;27;20530;-43
2022/12/12 01:06:18;;;;;;;29.70;13.57;;;0.40;99.90;;;;;;5131023;27;20150;-43
2022/12/12 01:08:44;;;;;;;30.15;13.40;;;0.40;99.90;;;;;;5112630;27;20157;-44
2022/12/12 01:11:11;;;;;;;29.80;13.13;;;0.40;99.90;;;;;;5131337;27;20042;-43
2022/12/12 01:13:38;;;;;;;32.85;13.85;;;0.40;99.90;;;;;;5130232;27;20035;-44
2022/12/12 01:16:05;;;;;;;27.50;14.02;;;0.50;99.90;;;;;;5130873;27;20450;-45
2022/12/12 01:18:31;;;;;;;31.30;14.15;;;0.40;99.90;;;;;;5130774;27;20039;-44
2022/12/12 01:20:57;;;;;;;30.95;13.23;;;0.40;99.90;;;;;;5131167;27;20358;-45
2022/12/12 01:23:23;;;;;;;31.85;13.38;;;0.40;99.90;;;;;;5130945;28;20119;-44
2022/12/12 01:25:49;;;;;;;32.05;14.02;;;0.30;99.90;;;;;;5130875;28;20088;-42
2022/12/12 01:28:15;;;;;;;29.30;13.20;;;0.30;99.90;;;;;;5130961;28;20035;-44
2022/12/12 01:30:41;;;;;;;32.13;13.93;;;0.40;99.90;;;;;;5130531;28;20069;-44
2022/12/12 01:33:06;;;;;;;31.73;14.45;;;0.30;99.90;;;;;;5130787;28;20039;-44
2022/12/12 01:35:33;;;;;;;33.72;14.95;;;0.40;99.90;;;;;;5112367;28;20038;-47
2022/12/12 01:37:59;;;;;;;29.27;13.27;;;0.40;99.90;;;;;;5130993;28;20107;-48
2022/12/12 01:40:27;;;;;;;34.15;14.60;;;0.30;99.90;;;;;;5130729;28;20039;-43
2022/12/12 01:42:54;;;;;;;28.75;13.63;;;0.40;99.90;;;;;;5130269;28;20050;-43
2022/12/12 01:45:53;;;;;;;30.48;13.82;;;0.30;99.90;;;;;;5130564;28;20389;-43
2022/12/12 01:48:21;;;;;;;30.92;14.18;;;0.40;99.90;;;;;;5130451;28;20083;-44
2022/12/12 01:50:48;;;;;;;27.60;13.10;;;0.30;99.90;;;;;;5130982;28;20553;-44
2022/12/12 01:53:16;;;;;;;31.88;13.80;;;0.30;99.90;;;;;;5130382;28;20031;-46
2022/12/12 01:55:43;;;;;;;33.47;14.15;;;0.30;99.90;;;;;;5130516;28;20058;-44
2022/12/12 01:58:08;;;;;;;31.88;13.98;;;0.40;99.90;;;;;;5130575;28;20734;-43
2022/12/12 02:00:34;;;;;;;31.52;14.20;;;0.30;99.90;;;;;;5130276;28;20054;-44
2022/12/12 02:03:00;;;;;;;32.78;14.55;;;0.40;99.90;;;;;;5130546;28;20034;-45
2022/12/12 02:05:32;;;;;;;31.48;14.57;;;0.30;99.90;;;;;;5130617;28;20117;-43
2022/12/12 02:08:00;;;;;;;32.47;14.02;;;0.30;99.90;;;;;;5130548;28;20035;-47
2022/12/12 02:10:26;;;;;;;30.98;13.88;;;0.30;99.90;;;;;;5129109;28;20050;-44
2022/12/12 02:13:04;;;;;;;30.20;14.07;;;0.30;99.90;;;;;;5130297;28;20043;-44
2022/12/12 02:15:43;;;;;;;29.38;14.80;;;0.30;99.90;;;;;;5129030;28;20038;-43
2022/12/12 02:18:28;;;;;;;29.98;13.40;;;0.30;99.90;;;;;;5129877;28;20039;-45
2022/12/12 02:21:03;;;;;;;27.27;12.55;;;0.30;99.90;;;;;;5130471;28;20035;-44
2022/12/12 02:23:35;;;;;;;31.50;14.18;;;0.40;99.90;;;;;;5130273;28;20065;-44
2022/12/12 02:26:32;;;;;;;29.95;13.43;;;0.40;99.90;;;;;;5131920;27;20442;-45
2022/12/12 02:29:15;;;;;;;29.98;13.30;;;0.40;99.90;;;;;;5133510;27;20501;-43
2022/12/12 02:32:17;;;;;;;31.27;13.05;;;0.30;99.90;;;;;;5133241;27;20043;-45
2022/12/12 02:35:01;;;;;;;29.23;13.10;;;0.30;99.90;;;;;;5116356;27;20487;-45
2022/12/12 02:37:35;;;;;;;31.02;13.13;;;0.30;99.90;;;;;;5133511;27;20031;-45
2022/12/12 02:40:42;;;;;;;29.48;13.55;;;0.30;99.90;;;;;;5115261;27;20543;-42
2022/12/12 02:43:37;;;;;;;28.73;13.63;;;0.30;99.90;;;;;;5114914;27;20168;-44
2022/12/12 02:46:09;;;;;;;29.13;13.57;;;0.30;99.90;;;;;;5132839;27;20035;-46
2022/12/12 02:48:47;;;;;;;29.08;13.32;;;0.30;99.90;;;;;;5133721;27;20037;-45
2022/12/12 02:51:15;;;;;;;29.05;13.85;;;0.30;99.90;;;;;;5133690;27;20039;-47
2022/12/12 02:53:41;;;;;;;28.38;13.02;;;0.30;99.90;;;;;;5130297;27;20039;-44
2022/12/12 02:56:39;;;;;;;28.63;13.02;;;0.30;99.90;;;;;;5115012;27;20058;-43
2022/12/12 02:59:05;;;;;;;30.30;13.18;;;0.30;99.90;;;;;;5131980;27;20042;-46
2022/12/12 03:01:42;;;;;;;27.02;12.55;;;0.30;99.90;;;;;;5115145;27;20035;-45
2022/12/12 03:07:57;;;;;;;25.98;11.93;;;0.20;99.90;;;;;;5132666;27;20046;-45
2022/12/12 03:10:38;;;;;;;27.90;13.13;;;0.20;99.90;;;;;;5132815;27;20046;-45
2022/12/12 03:13:19;;;;;;;33.85;13.52;;;0.30;99.90;;;;;;5131823;27;20478;-43
2022/12/12 03:16:08;;;;;;;29.95;12.77;;;0.30;99.90;;;;;;5132865;27;20043;-44
2022/12/12 03:18:58;;;;;;;33.35;13.45;;;0.30;99.90;;;;;;5132729;27;20047;-45
2022/12/12 03:21:50;;;;;;;31.02;12.15;;;0.30;99.90;;;;;;5133184;27;20035;-44
2022/12/12 03:24:57;;;;;;;30.60;12.98;;;0.20;99.90;;;;;;5132877;27;20094;-44
2022/12/12 03:27:59;;;;;;;31.67;12.73;;;0.20;99.90;;;;;;5113819;27;20039;-45
2022/12/12 03:30:26;;;;;;;29.83;13.50;;;0.20;99.90;;;;;;5092769;27;20043;-44
2022/12/12 03:33:05;;;;;;;29.30;13.00;;;0.30;99.90;;;;;;5133011;27;20043;-43
2022/12/12 03:35:36;;;;;;;30.65;13.32;;;0.30;99.90;;;;;;5131518;27;20027;-46
2022/12/12 03:38:18;;;;;;;30.45;13.93;;;0.30;99.90;;;;;;5131384;27;20043;-44
2022/12/12 03:40:51;;;;;;;30.90;13.63;;;0.30;99.90;;;;;;5132537;27;20482;-44
2022/12/12 03:43:21;;;;;;;30.25;13.38;;;0.30;99.90;;;;;;5132544;27;20027;-44
2022/12/12 03:45:53;;;;;;;30.65;14.05;;;0.30;99.90;;;;;;5131075;27;20072;-45
2022/12/12 03:48:27;;;;;;;32.20;13.23;;;0.20;99.90;;;;;;5132741;27;20111;-46
2022/12/12 03:51:08;;;;;;;31.38;13.75;;;0.20;99.90;;;;;;5132342;27;20493;-46
2022/12/12 03:54:09;;;;;;;28.48;13.98;;;0.20;99.90;;;;;;5132218;27;20096;-43
2022/12/12 03:56:55;;;;;;;28.17;13.13;;;0.30;99.90;;;;;;5130660;27;20376;-45
2022/12/12 03:59:28;;;;;;;28.15;13.02;;;0.20;99.90;;;;;;5131436;27;20150;-46
2022/12/12 04:02:15;;;;;;;28.75;13.77;;;0.30;99.90;;;;;;5132002;27;20038;-44
2022/12/12 04:04:53;;;;;;;25.13;12.52;;;0.30;99.90;;;;;;5132477;27;20031;-46
2022/12/12 04:07:23;;;;;;;30.10;13.50;;;0.30;99.90;;;;;;5113550;27;20039;-46
2022/12/12 04:12:57;;;;;;;;;;;0.20;99.90;;;;;;5131519;27;20589;-45
2022/12/12 04:15:52;;;;;;;27.63;12.57;;;0.20;99.90;;;;;;5132176;27;19954;-45
2022/12/12 04:18:24;;;;;;;;;;;0.30;99.90;;;;;;5132695;27;20043;-44
2022/12/12 04:24:36;;;;;;;29.45;12.07;;;0.30;99.90;;;;;;5131516;27;20043;-45
2022/12/12 04:27:12;;;;;;;27.17;12.38;;;0.30;99.90;;;;;;5112559;27;20099;-45
2022/12/12 04:29:59;;;;;;;28.92;12.30;;;0.30;99.90;;;;;;5113165;27;20042;-45
2022/12/12 04:32:41;;;;;;;27.40;13.05;;;0.30;99.90;;;;;;5131888;27;20066;-45
2022/12/12 04:35:29;;;;;;;32.47;14.38;;;0.20;99.90;;;;;;5131049;27;20046;-46
2022/12/12 04:37:57;;;;;;;30.30;13.50;;;0.20;99.90;;;;;;5129947;27;20047;-45
2022/12/12 04:40:32;;;;;;;28.60;13.57;;;0.40;99.90;;;;;;5112921;27;20038;-47
2022/12/12 04:43:08;;;;;;;31.17;13.68;;;0.30;99.90;;;;;;5131395;27;20096;-45
2022/12/12 04:45:38;;;;;;;30.58;12.57;;;0.30;99.90;;;;;;5112338;27;20067;-44
2022/12/12 04:48:06;;;;;;;29.63;13.15;;;0.30;99.90;;;;;;5129036;27;20503;-44
2022/12/12 04:50:34;;;;;;;29.33;12.93;;;0.20;99.90;;;;;;5131610;27;20099;-45
2022/12/12 04:53:06;;;;;;;26.48;12.88;;;0.30;99.90;;;;;;5129797;27;20071;-46
2022/12/12 04:55:38;;;;;;;29.33;13.50;;;0.50;99.90;;;;;;5131161;27;20050;-45
2022/12/12 04:58:06;;;;;;;25.92;12.10;;;0.20;99.90;;;;;;5131521;27;20091;-46
2022/12/12 05:00:43;;;;;;;26.33;13.20;;;0.30;99.90;;;;;;5131556;27;20039;-44
2022/12/12 05:03:27;;;;;;;28.30;12.82;;;0.20;99.90;;;;;;5130423;27;20042;-44
2022/12/12 05:06:00;;;;;;;26.88;13.00;;;0.30;99.90;;;;;;5131850;27;20038;-45
2022/12/12 05:08:31;;;;;;;29.05;13.23;;;0.30;99.90;;;;;;5130060;27;20122;-43
2022/12/12 05:11:00;;;;;;;27.83;13.90;;;0.20;99.90;;;;;;5130835;27;20061;-47
2022/12/12 05:13:38;;;;;;;29.63;13.73;;;0.20;99.90;;;;;;5130958;27;20191;-45
2022/12/12 05:16:25;;;;;;;29.80;13.00;;;0.20;99.90;;;;;;5111477;27;20446;-46
2022/12/12 05:18:51;;;;;;;28.50;12.45;;;0.20;99.90;;;;;;5131411;27;20039;-46
2022/12/12 05:21:17;;;;;;;28.80;13.05;;;0.30;99.90;;;;;;5129442;27;20038;-44
2022/12/12 05:23:43;;;;;;;27.02;12.25;;;0.30;99.90;;;;;;5130824;27;20077;-45
2022/12/12 05:26:19;;;;;;;26.77;12.10;;;0.30;99.90;;;;;;5131256;27;20070;-44
2022/12/12 05:28:44;;;;;;;29.15;12.60;;;0.30;99.90;;;;;;5131001;28;20481;-45
2022/12/12 05:31:10;;;;;;;30.77;13.40;;;0.30;99.90;;;;;;5111767;28;20043;-47
2022/12/12 05:33:36;;;;;;;29.67;13.13;;;0.30;99.90;;;;;;5130966;28;20458;-46
2022/12/12 05:36:01;;;;;;;27.85;12.60;;;0.20;99.90;;;;;;5130941;28;20031;-43
2022/12/12 05:38:27;;;;;;;26.67;12.85;;;0.20;99.90;;;;;;5131073;28;20058;-47
2022/12/12 05:40:53;;;;;;;28.27;13.23;;;0.30;99.90;;;;;;5131080;28;20394;-48
2022/12/12 05:43:18;;;;;;;27.55;12.63;;;0.30;99.90;;;;;;5130468;28;20035;-47
2022/12/12 05:45:44;;;;;;;28.30;13.65;;;0.20;99.90;;;;;;5112667;28;20045;-43
2022/12/12 05:48:10;;;;;;;29.63;13.45;;;0.20;99.90;;;;;;5131044;28;20462;-47
2022/12/12 05:50:35;;;;;;;28.85;13.35;;;0.20;99.90;;;;;;5130429;28;20114;-45
2022/12/12 05:53:01;;;;;;;30.65;13.55;;;0.20;99.90;;;;;;5112281;28;20039;-45
2022/12/12 05:55:27;;;;;;;29.00;12.85;;;0.20;99.90;;;;;;5130469;28;20083;-46
2022/12/12 05:57:52;;;;;;;28.40;12.73;;;0.20;99.90;;;;;;5130762;28;20486;-45
2022/12/12 06:00:18;;;;;;;26.42;12.48;;;0.20;99.90;;;;;;5132209;27;20043;-47
2022/12/12 06:02:44;;;;;;;28.23;11.98;;;0.20;99.90;;;;;;5134666;27;20058;-44
2022/12/12 06:05:10;;;;;;;26.75;11.88;;;0.20;99.90;;;;;;5134823;27;20035;-43
2022/12/12 06:07:35;;;;;;;29.25;13.30;;;0.20;99.90;;;;;;5134372;27;20042;-45
2022/12/12 06:10:01;;;;;;;27.10;12.55;;;0.20;99.90;;;;;;5134558;27;20039;-43
2022/12/12 06:12:27;;;;;;;30.38;13.23;;;0.10;99.90;;;;;;5134283;27;20039;-43
2022/12/12 06:14:52;;;;;;;28.73;13.38;;;0.10;99.90;;;;;;5115117;27;20035;-43
2022/12/12 06:17:18;;;;;;;27.60;12.88;;;0.20;99.90;;;;;;5116143;27;20414;-46
2022/12/12 06:19:44;;;;;;;27.38;12.63;;;0.20;99.90;;;;;;5134333;27;20043;-45
2022/12/12 06:22:09;;;;;;;27.67;11.70;;;0.20;99.90;;;;;;5133416;27;20041;-45
2022/12/12 06:24:35;;;;;;;27.45;12.25;;;0.20;99.90;;;;;;5134469;27;20143;-45
2022/12/12 06:27:01;;;;;;;28.58;12.82;;;0.20;99.90;;;;;;5134321;27;20530;-45
2022/12/12 06:29:27;;;;;;;30.67;13.70;;;0.20;99.90;;;;;;5099058;27;20042;-45
2022/12/12 06:31:52;;;;;;;27.58;12.30;;;0.90;99.90;;;;;;5134009;27;20046;-44
2022/12/12 06:34:18;;;;;;;28.75;13.43;;;0.20;99.90;;;;;;5133898;27;20035;-44
2022/12/12 06:36:44;;;;;;;26.15;12.45;;;0.20;99.90;;;;;;5115922;27;20038;-45
2022/12/12 06:39:09;;;;;;;29.23;13.07;;;0.20;99.90;;;;;;5133543;27;20416;-44
2022/12/12 06:41:35;;;;;;;30.80;13.50;;;0.10;99.90;;;;;;5134038;27;20142;-45
2022/12/12 06:44:01;;;;;;;29.08;13.35;;;0.20;99.90;;;;;;5112881;27;20043;-45
2022/12/12 06:46:28;;;;;;;26.95;12.80;;;0.20;99.90;;;;;;5115213;27;20035;-46
2022/12/12 06:48:55;;;;;;;28.05;12.07;;;0.20;99.90;;;;;;5132478;27;20079;-45
2022/12/12 06:51:28;;;;;;;26.08;12.55;;;0.20;99.90;;;;;;5133594;27;20041;-46
2022/12/12 06:53:55;;;;;;;25.88;12.18;;;0.20;99.90;;;;;;5133007;27;20096;-46
2022/12/12 06:56:23;;;;;;;28.05;13.18;;;0.20;99.90;;;;;;5114856;27;20047;-44
2022/12/12 06:58:49;;;;;;;27.85;12.63;;;0.20;99.90;;;;;;5133520;27;20035;-45
2022/12/12 07:01:20;;;;;;;31.70;13.00;;;0.20;99.90;;;;;;5133480;27;20042;-46
2022/12/12 07:03:47;;;;;;;25.30;11.60;;;0.20;99.90;;;;;;5133759;27;20127;-46
2022/12/12 07:06:15;;;;;;;27.08;12.93;;;0.20;99.90;;;;;;5114214;27;20406;-47
2022/12/12 07:08:41;;;;;;;26.60;12.20;;;0.70;99.90;;;;;;5115120;27;20043;-44
2022/12/12 07:11:13;;;;;;;29.55;12.43;;;0.20;99.90;;;;;;5133127;27;20083;-43
2022/12/12 07:13:39;;;;;;;25.55;11.45;;;0.20;99.90;;;;;;5131572;27;20431;-44
2022/12/12 07:16:06;;;;;;;29.13;13.15;;;2.00;99.90;;;;;;5133580;27;20122;-43
2022/12/12 07:18:31;;;;;;;26.80;12.95;;;0.10;99.90;;;;;;5132727;27;20050;-44
2022/12/12 07:20:57;;;;;;;27.65;12.25;;;1.00;99.90;;;;;;5132841;27;20039;-45
2022/12/12 07:23:23;;;;;;;26.75;12.57;;;0.20;99.90;;;;;;5133385;27;20031;-46
2022/12/12 07:25:49;;;;;;;26.27;12.15;;;0.10;99.90;;;;;;5132692;27;20489;-47
2022/12/12 07:28:15;;;;;;;25.45;12.40;;;0.20;99.90;;;;;;5132998;27;20043;-44
2022/12/12 07:30:43;;;;;;;27.02;11.88;;;0.20;99.90;;;;;;5133020;27;20579;-45
2022/12/12 07:33:10;;;;;;;27.17;12.52;;;0.20;99.90;;;;;;5114574;27;20050;-44
2022/12/12 07:35:36;;;;;;;26.15;11.75;;;0.20;99.90;;;;;;5129990;27;20486;-46
2022/12/12 07:38:03;;;;;;;28.67;11.90;;;0.20;99.90;;;;;;5131642;27;20070;-46
2022/12/12 07:40:28;;;;;;;26.52;12.57;;;0.20;99.90;;;;;;5132774;27;20047;-44
2022/12/12 07:42:54;;;;;;;26.13;11.88;;;0.10;99.90;;;;;;5124934;27;20102;-45
2022/12/12 07:45:20;;;;;;;26.25;12.65;;;0.20;99.90;;;;;;5122676;27;20046;-45
2022/12/12 07:47:45;;;;;;;26.35;12.30;;;-1.00;99.90;;;;;;5123071;27;20027;-46
2022/12/12 07:50:12;;;;;;;27.35;12.05;;;0.20;99.90;;;;;;5122590;27;20035;-45
2022/12/12 07:52:37;;;;;;;26.05;12.07;;;0.20;99.90;;;;;;5103592;27;20067;-46
2022/12/12 07:55:04;;;;;;;27.52;12.90;;;0.20;99.90;;;;;;5121740;27;20062;-46
2022/12/12 07:57:30;;;;;;;24.25;12.43;;;0.20;99.90;;;;;;5123140;27;20103;-47
2022/12/12 07:59:57;;;;;;;28.75;12.40;;;0.20;99.90;;;;;;5122577;27;20043;-47
2022/12/12 08:02:22;;;;;;;24.73;12.75;;;0.20;99.90;;;;;;5122525;27;20120;-45
2022/12/12 08:04:48;;;;;;;25.35;11.90;;;0.20;99.90;;;;;;5123903;27;20151;-47
2022/12/12 08:07:14;;;;;;;24.15;12.13;;;0.30;99.90;;;;;;5103048;27;20463;-46
2022/12/12 08:09:40;;;;;;;24.80;11.60;;;0.20;99.90;;;;;;5123135;27;20111;-47
2022/12/12 08:12:06;;;;;;;30.67;14.27;;;0.30;99.90;;;;;;5121985;27;20138;-46
2022/12/12 08:14:32;;;;;;;28.27;12.35;;;0.20;99.90;;;;;;5123407;27;20071;-44
2022/12/12 08:16:58;;;;;;;28.75;12.90;;;0.30;99.90;;;;;;5123001;27;20506;-43
2022/12/12 08:19:24;;;;;;;28.20;12.82;;;0.30;99.90;;;;;;5122602;27;20041;-48
2022/12/12 08:21:49;;;;;;;28.42;14.07;;;0.20;99.90;;;;;;5122951;27;20477;-45
2022/12/12 08:24:15;;;;;;;29.45;13.25;;;0.30;99.90;;;;;;5121893;27;20038;-45
2022/12/12 08:26:42;;;;;;;31.10;13.50;;;0.30;99.90;;;;;;5102740;27;20426;-44
2022/12/12 08:29:09;;;;;;;29.25;13.23;;;0.30;99.90;;;;;;5121351;27;20030;-44
2022/12/12 08:31:34;;;;;;;25.05;12.18;;;0.30;99.90;;;;;;5122903;27;20175;-45
2022/12/12 08:34:01;;;;;;;22.73;11.77;;;0.30;99.90;;;;;;5122678;27;20494;-43
2022/12/12 08:36:29;;;;;;;25.85;13.50;;;0.30;99.90;;;;;;5119395;27;20490;-45
2022/12/12 08:38:56;;;;;;;28.10;13.23;;;0.30;99.90;;;;;;5119260;27;20031;-42
2022/12/12 08:41:22;;;;;;;34.67;14.23;;;0.30;99.90;;;;;;5121189;27;20062;-41
2022/12/12 08:43:48;;;;;;;26.08;12.80;;;0.40;99.90;;;;;;5100578;27;20478;-44
2022/12/12 08:46:15;;;;;;;30.45;13.52;;;0.40;99.90;;;;;;5119406;27;20035;-44
2022/12/12 08:48:41;;;;;;;31.45;13.80;;;0.40;99.90;;;;;;5119247;27;20393;-43
2022/12/12 08:51:07;;;;;;;29.80;14.23;;;0.40;99.90;;;;;;5100767;27;20068;-42
2022/12/12 08:53:33;;;;;;;29.48;13.70;;;0.40;99.90;;;;;;5117936;27;20031;-47
2022/12/12 08:55:59;;;;;;;31.42;13.77;;;0.40;99.90;;;;;;5117959;27;20122;-43
2022/12/12 08:58:25;;;;;;;32.47;14.77;;;0.40;99.90;;;;;;5118477;27;20046;-43
2022/12/12 09:00:50;;;;;;;34.50;14.73;;;0.50;99.90;;;;;;5119963;27;20039;-44
2022/12/12 09:03:17;;;;;;;34.90;14.77;;;0.40;99.90;;;;;;5122439;27;21196;-44
2022/12/12 09:05:44;;;;;;;30.83;14.95;;;0.50;99.90;;;;;;5122157;27;20031;-44
2022/12/12 09:08:11;;;;;;;33.08;15.18;;;0.50;99.90;;;;;;5085218;27;20042;-44
2022/12/12 09:10:37;;;;;;;31.02;13.70;;;0.50;99.90;;;;;;5122609;27;20035;-43
2022/12/12 09:13:04;;;;;;;35.58;15.25;;;0.50;99.90;;;;;;5101514;27;20050;-48
2022/12/12 09:15:29;;;;;;;34.45;14.90;;;0.50;99.90;;;;;;5120781;27;20051;-46
2022/12/12 09:17:55;;;;;;;32.58;15.50;;;0.50;99.90;;;;;;5120060;27;20050;-46
2022/12/12 09:20:21;;;;;;;34.63;15.80;;;0.60;99.90;;;;;;5121729;27;20039;-46
2022/12/12 09:22:46;;;;;;;35.72;14.88;;;0.60;99.90;;;;;;5121617;27;20394;-44
2022/12/12 09:25:12;;;;;;;34.33;15.38;;;0.60;99.90;;;;;;5119864;27;20076;-44
2022/12/12 09:27:38;;;;;;;31.92;14.07;;;0.60;99.90;;;;;;5120085;28;20131;-43
2022/12/12 09:30:04;;;;;;;34.75;15.98;;;0.60;99.90;;;;;;5100703;28;20034;-45
2022/12/12 09:32:29;;;;;;;35.97;14.73;;;0.70;99.90;;;;;;5120847;28;20506;-43
2022/12/12 09:34:55;;;;;;;34.25;15.30;;;0.70;99.90;;;;;;5120287;27;20038;-44
2022/12/12 09:37:21;;;;;;;37.17;16.80;;;0.70;99.90;;;;;;5121343;27;20555;-44
2022/12/12 09:39:47;;;;;;;35.53;16.75;;;0.70;99.90;;;;;;5105283;27;20482;-45
2022/12/12 09:42:20;;;;;;;40.22;16.92;;;0.80;99.90;;;;;;5123931;27;20045;-44
2022/12/12 09:44:46;;;;;;;41.17;17.80;;;0.80;99.90;;;;;;5123220;27;20486;-44
2022/12/12 09:47:19;;;;;;;37.70;16.48;;;0.80;99.90;;;;;;5107671;27;20533;-46
2022/12/12 09:49:51;;;;;;;40.47;18.02;;;0.80;99.90;;;;;;5125283;27;20043;-44
2022/12/12 09:52:27;;;;;;;37.60;17.42;;;0.80;99.90;;;;;;5126247;27;20039;-44
2022/12/12 09:54:53;;;;;;;38.60;16.80;;;0.90;99.90;;;;;;5106109;27;20051;-46
2022/12/12 09:57:35;;;;;;;40.25;18.60;;;0.90;99.90;;;;;;5125876;27;20550;-43
2022/12/12 10:00:08;;;;;;;40.38;18.27;;;0.90;99.90;;;;;;5125635;27;20808;-45
2022/12/12 10:02:47;;;;;;;44.85;20.42;;;0.90;99.90;;;;;;5125922;27;20108;-45
2022/12/12 10:05:48;;;;;;;43.85;18.95;;;0.90;99.90;;;;;;5126018;27;20063;-45
2022/12/12 10:08:20;;;;;;;44.58;19.00;;;0.90;99.90;;;;;;5124888;27;20023;-43
2022/12/12 10:11:48;;;;;;;43.28;19.15;;;0.90;99.90;;;;;;5107357;27;20039;-43
2022/12/12 10:13:58;;;;;;;45.80;18.63;;;0.90;99.90;;;;;;5125558;27;20054;-44
2022/12/12 10:16:25;;;;;;;42.22;20.10;;;0.90;99.90;;;;;;5126612;27;20032;-45
2022/12/12 10:18:53;;;;;;;42.88;19.63;;;1.00;99.90;;;;;;5124462;27;20103;-46
2022/12/12 10:21:27;;;;;;;46.03;21.23;;;1.00;99.90;;;;;;5123840;27;20111;-44
2022/12/12 10:24:06;;;;;;;41.45;19.20;;;1.10;99.90;;;;;;5124693;27;20019;-44
2022/12/12 10:26:32;;;;;;;41.03;19.00;;;1.10;99.90;;;;;;5125507;27;20027;-43
2022/12/12 10:29:10;;;;;;;44.17;20.38;;;1.10;99.90;;;;;;5125897;27;20038;-44
2022/12/12 10:31:51;;;;;;;43.70;19.60;;;1.10;99.90;;;;;;5107578;27;20078;-44
2022/12/12 10:34:39;;;;;;;46.38;19.70;;;1.10;99.90;;;;;;5121799;27;20144;-44
2022/12/12 10:37:18;;;;;;;41.90;21.20;;;1.10;99.90;;;;;;5124934;27;20100;-44
2022/12/12 10:39:50;;;;;;;42.63;20.25;;;1.10;99.90;;;;;;5124164;27;20047;-42
2022/12/12 10:42:39;;;;;;;45.15;21.17;;;0.60;99.90;;;;;;5125050;27;20458;-44
2022/12/12 10:45:24;;;;;;;45.80;21.80;;;1.10;99.90;;;;;;5124532;27;20028;-43
2022/12/12 10:47:50;;;;;;;48.10;21.15;;;1.10;99.90;;;;;;5124848;27;20035;-44
2022/12/12 10:50:33;;;;;;;46.90;20.90;;;1.20;99.90;;;;;;5121158;27;20508;-44
2022/12/12 10:53:05;;;;;;;42.58;19.50;;;1.20;99.90;;;;;;5122641;27;20115;-46
2022/12/12 10:55:58;;;;;;;45.67;21.80;;;1.20;99.90;;;;;;5122518;27;20477;-45
2022/12/12 10:58:25;;;;;;;46.25;21.77;;;1.20;99.90;;;;;;5101381;27;20027;-46
2022/12/12 11:01:00;;;;;;;43.08;20.85;;;1.50;99.90;;;;;;5124258;27;20062;-43
2022/12/12 11:03:35;;;;;;;45.40;22.52;;;1.30;99.90;;;;;;5120588;27;20046;-45
2022/12/12 11:06:13;;;;;;;43.47;20.85;;;1.40;99.90;;;;;;5118293;27;20027;-44
2022/12/12 11:08:52;;;;;;;47.42;22.40;;;1.30;99.90;;;;;;5119592;27;20035;-45
2022/12/12 11:11:21;;;;;;;40.47;20.65;;;1.30;99.90;;;;;;5122738;27;20065;-43
2022/12/12 11:13:59;;;;;;;46.78;22.45;;;1.40;99.90;;;;;;5123665;27;20108;-44
2022/12/12 11:16:43;;;;;;;49.97;23.02;;;1.40;99.90;;;;;;5123751;27;20123;-45
2022/12/12 11:19:19;;;;;;;46.80;22.42;;;1.40;99.90;;;;;;5105056;27;20651;-42
2022/12/12 11:21:45;;;;;;;47.05;22.05;;;1.40;99.90;;;;;;5123081;27;20043;-44
2022/12/12 11:24:19;;;;;;;44.47;22.10;;;1.50;99.90;;;;;;5123123;27;20050;-43
2022/12/12 11:27:06;;;;;;;49.15;22.88;;;1.80;99.90;;;;;;5105529;27;20111;-43
2022/12/12 11:30:20;;;;;;;50.00;22.05;;;1.50;99.90;;;;;;5122488;27;20487;-46
2022/12/12 11:32:48;;;;;;;48.88;23.40;;;1.50;99.90;;;;;;5040413;28;20223;-42
2022/12/12 11:35:25;;;;;;;46.97;21.95;;;1.50;99.90;;;;;;5115680;27;20047;-42
2022/12/12 11:37:56;;;;;;;47.92;21.48;;;1.60;99.90;;;;;;5123651;27;20479;-43
2022/12/12 11:41:23;;;;;;;47.60;22.90;;;1.70;99.90;;;;;;5124444;27;20042;-43
2022/12/12 11:43:48;;;;;;;47.45;22.83;;;1.80;99.90;;;;;;5035767;28;20037;-45
2022/12/12 11:46:14;;;;;;;45.88;23.63;;;1.80;99.90;;;;;;5098670;27;20535;-43
2022/12/12 11:48:51;;;;;;;48.30;23.58;;;1.90;99.90;;;;;;5104277;27;20050;-45
2022/12/12 11:51:37;;;;;;;51.55;24.92;;;1.90;99.90;;;;;;5122576;27;20042;-44
2022/12/12 11:54:10;;;;;;;47.08;22.95;;;2.00;99.90;;;;;;5120247;27;20039;-45
2022/12/12 11:57:00;;;;;;;46.80;22.48;;;2.00;99.90;;;;;;5081200;28;20483;-44
2022/12/12 11:59:32;;;;;;;48.28;22.38;;;2.00;99.90;;;;;;5078329;28;20495;-43
2022/12/12 12:02:26;;;;;;;48.70;22.17;;;2.20;99.90;;;;;;5079576;28;20274;-44
2022/12/12 12:05:16;;;;;;;47.30;21.92;;;2.60;99.90;;;;;;5082650;28;20429;-47
2022/12/12 12:08:05;;;;;;;43.13;20.52;;;2.50;99.90;;;;;;5080570;28;20546;-45
2022/12/12 12:11:03;;;;;;;42.88;20.77;;;2.60;99.90;;;;;;5080675;28;20044;-46
2022/12/12 12:13:44;;;;;;;46.53;21.48;;;2.50;99.90;;;;;;5084682;28;20048;-46
2022/12/12 12:16:47;;;;;;;43.58;21.67;;;2.40;99.90;;;;;;5084978;28;20040;-46
2022/12/12 12:19:22;;;;;;;40.40;20.98;;;2.30;99.90;;;;;;5088747;28;20043;-45
2022/12/12 12:22:06;;;;;;;40.63;20.15;;;2.30;99.90;;;;;;5087780;28;20032;-45
2022/12/12 12:24:56;;;;;;;39.40;20.63;;;2.40;99.90;;;;;;5088615;28;20034;-46
2022/12/12 12:27:49;;;;;;;42.47;21.38;;;2.20;99.90;;;;;;5087658;28;20036;-45
2022/12/12 12:30:22;;;;;;;41.08;20.02;;;2.20;99.90;;;;;;5089614;28;20525;-47
2022/12/12 12:33:08;;;;;;;39.63;19.80;;;2.50;99.90;;;;;;5090539;28;20406;-45
2022/12/12 12:36:06;;;;;;;41.20;22.35;;;2.90;99.90;;;;;;5081607;28;20056;-51
2022/12/12 12:39:03;;;;;;;41.50;20.52;;;3.30;99.90;;;;;;5065476;28;20048;-46
2022/12/12 12:42:03;;;;;;;39.05;20.80;;;3.70;99.90;;;;;;5018233;28;21218;-45
2022/12/12 12:44:38;;;;;;;38.80;20.90;;;3.80;99.90;;;;;;5043537;28;20418;-44
2022/12/12 12:47:11;;;;;;;41.17;23.45;;;3.80;99.90;;;;;;5091205;28;20032;-48
2022/12/12 12:49:57;;;;;;;41.92;24.02;;;4.00;99.90;;;;;;5090772;28;20039;-45
2022/12/12 12:52:50;;;;;;;37.03;21.88;;;4.00;99.90;;;;;;5089249;28;20166;-44
2022/12/12 12:55:20;;;;;;;34.20;21.25;;;3.90;99.90;;;;;;5077577;27;20066;-44
2022/12/12 12:57:49;;;;;;;38.00;22.33;;;3.60;99.90;;;;;;5131519;27;20035;-44
2022/12/12 13:00:18;;;;;;;37.30;21.50;;;3.30;99.90;;;;;;5131293;27;20912;-45
2022/12/12 13:02:47;;;;;;;38.30;21.25;;;3.00;99.90;;;;;;5130340;27;20566;-45
2022/12/12 13:05:30;;;;;;;40.22;21.05;;;2.80;99.90;;;;;;5131409;27;20035;-45
2022/12/12 13:08:04;;;;;;;35.70;18.70;;;2.60;99.90;;;;;;5130035;27;20031;-44
2022/12/12 13:10:31;;;;;;;38.67;21.27;;;2.60;99.90;;;;;;5129361;27;20031;-44
2022/12/12 13:13:20;;;;;;;36.65;20.08;;;2.60;99.90;;;;;;5131026;27;20092;-44
2022/12/12 13:15:51;;;;;;;34.22;18.25;;;2.60;99.90;;;;;;5131380;27;20043;-49